createdAt,value
2022-11-22T07:49:14.955Z,72.40
2022-11-22T07:51:41.743Z,73.78
2022-11-22T07:54:09.985Z,73.79
2022-11-22T07:56:39.030Z,73.92
2022-11-22T07:59:05.383Z,74.28
2022-11-22T08:01:31.775Z,73.33
2022-11-22T08:03:58.385Z,72.85
2022-11-22T08:06:24.777Z,71.88
2022-11-22T08:08:51.741Z,72.59
2022-11-22T08:11:20.085Z,72.95
2022-11-22T08:13:46.571Z,73.83
2022-11-22T08:16:15.327Z,73.21
2022-11-22T08:18:41.866Z,73.48
2022-11-22T08:21:11.796Z,73.46
2022-11-22T08:23:38.137Z,73.15
2022-11-22T08:26:04.607Z,72.98
2022-11-22T08:28:33.980Z,73.12
2022-11-22T08:31:00.480Z,72.49
2022-11-22T08:33:27.032Z,73.09
2022-11-22T08:35:53.482Z,73.40
2022-11-22T08:38:19.842Z,71.77
2022-11-22T08:40:46.174Z,72.88
2022-11-22T08:43:12.530Z,72.82
2022-11-22T08:45:38.898Z,71.94
2022-11-22T08:48:05.678Z,71.97
2022-11-22T08:50:32.107Z,71.75
2022-11-22T08:52:58.623Z,70.36
2022-11-22T08:55:25.044Z,69.60
2022-11-22T08:57:51.476Z,69.96
2022-11-22T09:00:17.954Z,69.63
2022-11-22T09:02:44.449Z,69.47
2022-11-22T09:05:11.832Z,67.95
2022-11-22T09:10:24.702Z,67.31
2022-11-22T09:12:51.145Z,69.18
2022-11-22T09:15:18.647Z,67.62
2022-11-22T09:17:45.133Z,69.57
2022-11-22T09:20:11.557Z,68.40
2022-11-22T09:22:37.913Z,69.47
2022-11-22T09:25:04.369Z,68.11
2022-11-22T09:27:31.124Z,67.94
2022-11-22T09:29:58.556Z,68.96
2022-11-22T09:32:29.353Z,67.38
2022-11-22T09:35:00.101Z,66.49
2022-11-22T09:37:26.468Z,67.96
2022-11-22T09:39:52.815Z,66.86
2022-11-22T09:42:19.380Z,65.96
2022-11-22T09:44:45.942Z,65.82
2022-11-22T09:47:12.375Z,66.33
2022-11-22T09:49:38.928Z,65.45
2022-11-22T09:52:05.390Z,66.30
2022-11-22T09:54:31.743Z,66.54
2022-11-22T09:56:58.625Z,66.57
2022-11-22T09:59:26.507Z,65.38
2022-11-22T10:01:52.988Z,63.95
2022-11-22T10:04:19.618Z,66.25
2022-11-22T10:06:46.067Z,66.02
2022-11-22T10:09:12.659Z,64.61
2022-11-22T10:11:39.332Z,66.28
2022-11-22T10:14:05.836Z,67.08
2022-11-22T10:16:32.264Z,66.17
2022-11-22T10:18:58.702Z,66.52
2022-11-22T10:21:25.260Z,66.64
2022-11-22T10:23:51.613Z,66.37
2022-11-22T10:26:17.966Z,66.53
2022-11-22T10:28:44.321Z,66.48
2022-11-22T10:31:10.777Z,65.95
2022-11-22T10:33:42.855Z,65.93
2022-11-22T10:36:10.788Z,66.04
2022-11-22T10:38:37.465Z,67.50
2022-11-22T10:41:05.360Z,65.91
2022-11-22T10:43:31.795Z,65.80
2022-11-22T10:45:58.159Z,65.92
2022-11-22T10:48:24.551Z,65.55
2022-11-22T10:50:50.930Z,65.43
2022-11-22T10:53:17.305Z,66.41
2022-11-22T10:55:43.899Z,66.34
2022-11-22T10:58:10.329Z,65.60
2022-11-22T11:00:36.695Z,65.15
2022-11-22T11:03:03.144Z,65.34
2022-11-22T11:05:29.999Z,66.12
2022-11-22T11:08:04.123Z,64.62
2022-11-22T11:10:44.283Z,64.55
2022-11-22T11:13:10.888Z,65.64
2022-11-22T11:15:37.767Z,66.10
2022-11-22T11:18:04.150Z,65.59
2022-11-22T11:20:31.080Z,65.64
2022-11-22T11:25:43.893Z,65.24
2022-11-22T11:28:10.717Z,64.95
2022-11-22T11:30:37.061Z,65.34
2022-11-22T11:33:03.704Z,63.21
2022-11-22T11:35:30.087Z,62.67
2022-11-22T11:37:56.737Z,61.98
2022-11-22T11:40:23.210Z,62.22
2022-11-22T11:42:49.798Z,61.81
2022-11-22T11:45:16.230Z,62.30
2022-11-22T11:47:42.593Z,62.29
2022-11-22T11:50:11.257Z,61.18
2022-11-22T11:52:37.808Z,62.74
2022-11-22T11:55:04.138Z,61.51
2022-11-22T11:57:30.502Z,61.46
2022-11-22T11:59:56.857Z,61.32
2022-11-22T12:02:23.349Z,61.91
2022-11-22T12:04:49.996Z,60.73
2022-11-22T12:07:16.674Z,62.26
2022-11-22T12:09:43.388Z,60.64
2022-11-22T12:12:10.125Z,60.42
2022-11-22T12:17:26.428Z,59.45
2022-11-22T12:22:49.331Z,58.60
2022-11-22T12:28:03.313Z,57.40
2022-11-22T12:30:30.070Z,57.00
2022-11-22T12:32:56.577Z,58.83
2022-11-22T12:35:23.057Z,58.10
2022-11-22T12:37:50.005Z,57.78
2022-11-22T12:40:17.650Z,56.63
2022-11-22T12:42:44.215Z,57.92
2022-11-22T12:45:11.001Z,58.54
2022-11-22T12:47:37.445Z,57.86
2022-11-22T12:48:22.464Z,57.27
2022-11-22T12:48:24.033Z,60.15
2022-11-22T12:50:04.068Z,58.16
2022-11-22T12:52:30.622Z,58.38
2022-11-22T12:54:57.014Z,56.88
2022-11-22T12:57:23.374Z,58.03
2022-11-22T12:59:49.953Z,56.44
2022-11-22T13:02:16.927Z,56.63
2022-11-22T13:04:43.293Z,56.38
2022-11-22T13:07:09.758Z,57.65
2022-11-22T13:09:38.746Z,55.66
2022-11-22T13:12:05.176Z,57.62
2022-11-22T13:14:34.757Z,57.77
2022-11-22T13:17:01.705Z,57.57
2022-11-22T13:19:28.190Z,59.04
2022-11-22T13:21:54.743Z,57.81
2022-11-22T13:24:21.197Z,56.23
2022-11-22T13:26:47.957Z,56.72
2022-11-22T13:29:14.502Z,57.24
2022-11-22T13:31:41.271Z,57.80
2022-11-22T13:34:07.910Z,58.93
2022-11-22T13:36:34.248Z,56.73
2022-11-22T13:39:00.664Z,57.02
2022-11-22T13:41:27.251Z,57.64
2022-11-22T13:43:53.803Z,57.50
2022-11-22T13:46:20.390Z,58.33
2022-11-22T13:48:47.896Z,57.93
2022-11-22T13:51:16.844Z,58.01
2022-11-22T13:53:44.172Z,59.32
2022-11-22T13:56:11.982Z,57.97
2022-11-22T13:58:38.660Z,59.04
2022-11-22T14:01:05.097Z,60.93
2022-11-22T14:03:31.767Z,59.13
2022-11-22T14:05:58.575Z,60.19
2022-11-22T14:08:24.945Z,59.26
2022-11-22T14:10:51.403Z,60.25
2022-11-22T14:13:17.785Z,60.34
2022-11-22T14:15:44.140Z,60.89
2022-11-22T14:18:10.450Z,60.48
2022-11-22T14:20:36.807Z,60.71
2022-11-22T14:29:35.608Z,46.27
2022-11-22T14:39:05.589Z,54.08
2022-11-22T14:41:31.968Z,55.41
2022-11-22T14:43:58.391Z,55.68
2022-11-22T14:46:51.833Z,56.71
2022-11-22T14:49:13.648Z,56.14
2022-11-22T14:51:40.013Z,55.91
2022-11-22T14:54:07.411Z,56.88
2022-11-22T14:56:33.797Z,57.80
2022-11-22T14:59:00.471Z,56.69
2022-11-22T15:01:27.943Z,56.73
2022-11-22T15:09:10.286Z,58.00
2022-11-22T15:09:21.293Z,57.87
2022-11-22T15:09:45.079Z,58.05
2022-11-22T15:12:14.448Z,57.90
2022-11-22T15:14:41.031Z,57.92
2022-11-22T15:59:02.467Z,61.20
2022-11-22T16:01:28.850Z,61.15
2022-11-22T16:03:55.393Z,61.17
2022-11-22T16:06:21.928Z,60.88
2022-11-22T16:08:48.421Z,60.83
2022-11-22T16:11:15.129Z,60.98
2022-11-22T16:13:45.498Z,61.90
2022-11-22T16:16:12.923Z,61.85
2022-11-22T16:18:39.335Z,61.91
2022-11-22T16:21:05.817Z,60.68
2022-11-22T16:23:32.178Z,61.21
2022-11-22T16:25:58.528Z,61.35
2022-11-22T16:42:31.327Z,62.12
2022-11-22T16:45:03.575Z,62.25
2022-11-22T16:47:31.742Z,61.93
2022-11-22T16:49:58.148Z,61.92
2022-11-22T16:52:24.635Z,62.73
2022-11-22T16:54:51.122Z,62.67
2022-11-22T16:57:17.842Z,62.87
2022-11-22T16:59:47.323Z,62.71
2022-11-22T17:02:14.322Z,62.52
2022-11-22T17:04:41.344Z,62.90
2022-11-22T17:07:07.862Z,62.32
2022-11-22T17:09:34.516Z,62.62
2022-11-22T17:12:01.234Z,62.67
2022-11-22T17:14:27.562Z,62.52
2022-11-22T17:16:53.931Z,63.21
2022-11-22T17:22:07.107Z,63.85
2022-11-22T17:24:33.976Z,64.17
2022-11-22T17:27:00.415Z,64.55
2022-11-22T17:29:49.258Z,64.44
2022-11-22T17:32:15.702Z,65.63
2022-11-22T17:34:42.317Z,65.39
2022-11-22T17:37:08.681Z,65.87
2022-11-22T17:39:35.125Z,65.55
2022-11-22T17:42:01.495Z,65.48
2022-11-22T17:44:28.078Z,65.50
2022-11-22T17:46:54.633Z,65.78
2022-11-22T17:49:21.005Z,66.02
2022-11-22T17:51:47.376Z,65.93
2022-11-22T17:54:13.719Z,66.18
2022-11-22T17:56:40.386Z,66.53
2022-11-22T17:59:06.774Z,66.33
2022-11-22T18:01:33.467Z,66.56
2022-11-22T18:03:59.790Z,66.68
2022-11-22T18:06:26.417Z,67.60
2022-11-22T18:08:52.983Z,67.46
2022-11-22T18:11:20.372Z,67.41
2022-11-22T18:13:47.119Z,66.92
2022-11-22T18:16:13.569Z,66.23
2022-11-22T18:18:56.310Z,66.48
2022-11-22T18:21:23.726Z,65.65
2022-11-22T18:23:50.326Z,65.25
2022-11-22T18:29:35.653Z,65.77
2022-11-22T18:31:53.555Z,65.78
2022-11-22T18:34:20.817Z,65.89
2022-11-22T18:36:55.987Z,65.91
2022-11-22T18:39:26.051Z,65.19
2022-11-22T18:41:52.421Z,65.53
2022-11-22T18:44:19.616Z,65.75
2022-11-22T18:46:45.987Z,66.15
2022-11-22T18:49:12.338Z,66.99
2022-11-22T18:51:39.174Z,66.24
2022-11-22T18:54:06.475Z,65.93
2022-11-22T18:59:13.202Z,64.98
2022-11-22T19:01:39.646Z,64.75
2022-11-22T19:04:06.090Z,65.68
2022-11-22T19:06:34.400Z,66.65
2022-11-22T19:09:00.798Z,67.55
2022-11-22T19:11:27.500Z,68.58
2022-11-22T19:13:53.937Z,69.54
2022-11-22T19:16:20.270Z,69.59
2022-11-22T19:18:46.581Z,69.59
2022-11-22T19:21:13.084Z,70.16
2022-11-22T19:23:39.402Z,70.18
2022-11-22T19:26:05.822Z,70.09
2022-11-22T19:28:32.495Z,70.63
2022-11-22T19:31:00.449Z,70.03
2022-11-22T19:33:26.879Z,70.42
2022-11-22T19:35:53.649Z,70.66
2022-11-22T19:38:20.035Z,70.25
2022-11-22T19:43:30.905Z,69.43
2022-11-22T19:45:58.351Z,69.46
2022-11-22T19:48:27.081Z,69.20
2022-11-22T19:50:53.453Z,69.68
2022-11-22T19:53:19.836Z,68.76
2022-11-22T19:55:46.201Z,68.42
2022-11-22T19:58:13.871Z,67.87
2022-11-22T20:00:40.249Z,68.53
2022-11-22T20:03:09.054Z,67.74
2022-11-22T20:05:35.430Z,68.33
2022-11-22T20:08:01.770Z,68.53
2022-11-22T20:10:28.410Z,68.49
2022-11-22T20:12:57.693Z,68.12
2022-11-22T20:15:24.138Z,68.26
2022-11-22T20:17:50.696Z,68.33
2022-11-22T20:20:19.768Z,69.16
2022-11-22T20:22:46.317Z,68.76
2022-11-22T20:25:12.937Z,70.38
2022-11-22T20:27:41.830Z,69.94
2022-11-22T20:30:08.202Z,69.27
2022-11-22T20:32:34.594Z,69.04
2022-11-22T20:35:03.477Z,68.79
2022-11-22T20:37:29.872Z,69.31
2022-11-22T20:39:58.770Z,69.39
2022-11-22T20:42:40.519Z,69.55
2022-11-22T20:45:10.277Z,69.68
2022-11-22T20:47:36.881Z,69.21
2022-11-22T20:50:07.435Z,69.76
2022-11-22T20:52:33.826Z,69.93
2022-11-22T20:55:05.036Z,69.41
2022-11-22T20:57:33.828Z,69.62
2022-11-22T21:00:00.512Z,69.92
2022-11-22T21:02:29.144Z,69.88
2022-11-22T21:04:55.719Z,70.01
2022-11-22T21:07:22.102Z,70.29
2022-11-22T21:09:48.443Z,69.86
2022-11-22T21:12:14.850Z,69.69
2022-11-22T21:14:41.550Z,69.73
2022-11-22T21:17:37.199Z,70.03
2022-11-22T21:19:54.356Z,69.99
2022-11-22T21:22:20.741Z,69.68
2022-11-22T21:33:31.787Z,70.36
2022-11-22T21:36:01.431Z,69.77
2022-11-22T23:40:14.595Z,70.21
2022-11-22T23:42:41.043Z,70.86
2022-11-22T23:45:07.405Z,71.25
2022-11-22T23:47:34.785Z,72.28
2022-11-22T23:50:02.179Z,72.33
2022-11-22T23:52:28.517Z,72.29
2022-11-22T23:54:54.877Z,71.89
2022-11-22T23:57:21.232Z,71.74
2022-11-22T23:59:47.596Z,71.19
